createdAt,value
2018-12-13T00:01:09.768Z,14.97
2018-12-13T00:03:48.718Z,14.60
2018-12-13T00:06:38.621Z,14.90
2018-12-13T00:09:13.392Z,14.63
2018-12-13T00:11:50.612Z,16.43
2018-12-13T00:14:28.034Z,15.80
2018-12-13T00:17:03.716Z,15.30
2018-12-13T00:19:44.390Z,15.07
2018-12-13T00:22:19.029Z,15.40
2018-12-13T00:25:01.690Z,15.50
2018-12-13T00:27:38.841Z,15.07
2018-12-13T00:30:13.146Z,14.40
2018-12-13T00:45:43.966Z,16.53
2018-12-13T00:48:20.257Z,15.97
2018-12-13T00:51:00.693Z,16.57
2018-12-13T00:53:34.818Z,15.60
2018-12-13T00:56:10.806Z,16.13
2018-12-13T00:58:45.533Z,16.37
2018-12-13T01:01:20.865Z,16.20
2018-12-13T01:04:02.683Z,16.37
2018-12-13T01:06:45.957Z,14.97
2018-12-13T01:09:24.263Z,16.10
2018-12-13T01:12:03.406Z,15.77
2018-12-13T01:14:46.173Z,16.20
2018-12-13T01:17:23.769Z,18.30
2018-12-13T01:20:02.024Z,17.83
2018-12-13T01:22:39.878Z,17.80
2018-12-13T01:25:17.474Z,18.77
2018-12-13T01:27:56.678Z,18.63
2018-12-13T01:30:34.277Z,19.03
2018-12-13T01:33:22.074Z,18.43
2018-12-13T01:36:03.923Z,19.97
2018-12-13T01:38:39.777Z,19.63
2018-12-13T01:41:15.425Z,20.77
2018-12-13T01:43:54.589Z,19.37
2018-12-13T01:54:28.159Z,21.97
2018-12-13T01:57:06.531Z,20.60
2018-12-13T01:59:42.935Z,20.47
2018-12-13T02:02:18.960Z,21.07
2018-12-13T02:04:56.473Z,18.97
2018-12-13T02:07:36.297Z,21.07
2018-12-13T02:10:19.861Z,22.47
2018-12-13T02:12:56.218Z,21.10
2018-12-13T02:15:37.039Z,21.33
2018-12-13T02:18:15.182Z,21.47
2018-12-13T02:20:51.216Z,20.50
2018-12-13T02:23:32.936Z,22.27
2018-12-13T02:26:11.676Z,21.20
2018-12-13T02:28:48.099Z,21.47
2018-12-13T02:34:34.713Z,19.93
2018-12-13T02:37:16.258Z,21.13
2018-12-13T02:39:54.333Z,22.10
2018-12-13T02:45:33.064Z,21.07
2018-12-13T02:48:16.628Z,19.60
2018-12-13T02:53:54.486Z,22.03
2018-12-13T02:56:30.131Z,22.67
2018-12-13T02:59:10.247Z,20.90
2018-12-13T03:01:44.648Z,22.80
2018-12-13T03:04:24.964Z,21.90
2018-12-13T03:07:13.641Z,19.57
2018-12-13T03:09:47.183Z,21.63
2018-12-13T03:12:24.960Z,20.40
2018-12-13T03:15:02.061Z,21.27
2018-12-13T03:17:43.729Z,20.87
2018-12-13T03:20:21.696Z,21.67
2018-12-13T03:22:58.027Z,21.77
2018-12-13T03:25:36.384Z,20.70
2018-12-13T03:28:16.790Z,20.77
2018-12-13T03:31:06.004Z,21.23
2018-12-13T03:33:50.802Z,19.90
2018-12-13T03:36:38.427Z,20.97
2018-12-13T03:39:20.471Z,20.70
2018-12-13T03:41:58.099Z,20.50
2018-12-13T03:44:37.983Z,21.63
2018-12-13T03:47:16.223Z,21.63
2018-12-13T03:49:53.314Z,20.87
2018-12-13T03:52:34.825Z,21.67
2018-12-13T03:55:11.570Z,21.93
2018-12-13T03:57:46.939Z,24.43
2018-12-13T04:00:24.718Z,22.90
2018-12-13T04:03:01.759Z,20.27
2018-12-13T04:05:50.017Z,22.43
2018-12-13T04:08:27.645Z,23.47
2018-12-13T04:11:04.662Z,22.93
2018-12-13T04:13:43.681Z,22.03
2018-12-13T04:16:21.699Z,25.30
2018-12-13T04:18:57.544Z,23.97
2018-12-13T04:21:46.003Z,23.23
2018-12-13T04:24:37.533Z,23.97
2018-12-13T04:27:15.636Z,23.23
2018-12-13T04:29:52.579Z,22.17
2018-12-13T04:32:29.074Z,23.07
2018-12-13T04:35:06.219Z,25.07
2018-12-13T04:37:42.965Z,25.43
2018-12-13T04:40:20.483Z,24.10
2018-12-13T04:42:56.409Z,24.90
2018-12-13T04:45:34.345Z,25.13
2018-12-13T04:48:16.299Z,24.70
2018-12-13T04:51:04.977Z,24.83
2018-12-13T04:53:43.179Z,23.40
2018-12-13T04:56:26.540Z,24.07
2018-12-13T04:59:05.180Z,23.77
2018-12-13T05:01:43.135Z,24.27
2018-12-13T05:04:20.955Z,22.80
2018-12-13T05:07:08.859Z,24.03
2018-12-13T05:09:55.078Z,25.03
2018-12-13T05:12:32.806Z,24.40
2018-12-13T05:18:23.884Z,23.70
2018-12-13T05:27:25.334Z,24.90
2018-12-13T05:30:05.651Z,21.90
2018-12-13T05:32:43.411Z,24.43
2018-12-13T05:35:22.392Z,24.27
2018-12-13T05:37:59.422Z,26.63
2018-12-13T05:40:35.778Z,24.97
2018-12-13T05:43:13.911Z,25.00
2018-12-13T05:45:51.718Z,25.23
2018-12-13T05:48:30.245Z,24.57
2018-12-13T05:51:05.617Z,24.40
2018-12-13T05:53:40.711Z,24.03
2018-12-13T05:56:23.393Z,24.10
2018-12-13T05:59:01.980Z,21.97
2018-12-13T06:01:38.827Z,21.30
2018-12-13T06:04:22.939Z,21.47
2018-12-13T06:07:01.631Z,20.37
2018-12-13T06:12:44.509Z,21.57
2018-12-13T06:15:20.538Z,20.13
2018-12-13T06:17:56.903Z,21.97
2018-12-13T06:20:34.810Z,19.87
2018-12-13T06:23:11.495Z,21.47
2018-12-13T06:25:45.680Z,19.70
2018-12-13T06:28:24.219Z,20.47
2018-12-13T06:34:01.654Z,18.67
2018-12-13T06:36:39.368Z,19.27
2018-12-13T06:39:15.713Z,17.87
2018-12-13T06:41:56.104Z,19.20
2018-12-13T06:44:33.749Z,19.90
2018-12-13T06:47:08.170Z,19.07
2018-12-13T06:49:42.426Z,17.60
2018-12-13T06:52:17.121Z,16.17
2018-12-13T06:54:51.902Z,18.37
2018-12-13T06:57:29.095Z,17.43
2018-12-13T07:00:06.592Z,18.53
2018-12-13T07:02:44.632Z,15.97
2018-12-13T07:05:22.076Z,16.60
2018-12-13T07:08:07.862Z,15.37
2018-12-13T07:10:43.725Z,16.97
2018-12-13T07:13:23.422Z,15.23
2018-12-13T07:15:58.848Z,15.37
2018-12-13T07:18:45.678Z,15.83
2018-12-13T07:21:20.750Z,17.50
2018-12-13T07:24:05.981Z,18.00
2018-12-13T07:26:43.860Z,17.63
2018-12-13T07:29:22.631Z,14.40
2018-12-13T07:32:03.791Z,15.67
2018-12-13T07:34:46.808Z,16.10
2018-12-13T07:37:24.388Z,16.30
2018-12-13T07:40:06.361Z,15.50
2018-12-13T07:42:49.995Z,15.43
2018-12-13T07:45:32.698Z,14.60
2018-12-13T07:48:10.006Z,15.07
2018-12-13T07:51:02.564Z,14.00
2018-12-13T07:53:43.793Z,15.20
2018-12-13T07:56:29.294Z,15.23
2018-12-13T07:59:12.007Z,14.40
2018-12-13T08:01:54.047Z,14.03
2018-12-13T08:04:34.012Z,14.03
2018-12-13T08:10:17.864Z,14.13
2018-12-13T08:12:56.919Z,13.80
2018-12-13T08:15:31.984Z,14.53
2018-12-13T08:18:16.219Z,13.20
2018-12-13T08:20:58.216Z,14.10
2018-12-13T08:30:07.487Z,15.17
2018-12-13T08:33:00.002Z,13.57
2018-12-13T08:35:38.025Z,14.47
2018-12-13T08:38:15.679Z,13.63
2018-12-13T08:50:28.145Z,12.80
2018-12-13T08:56:20.830Z,13.17
2018-12-13T09:05:17.916Z,12.33
2018-12-13T09:08:02.124Z,12.47
2018-12-13T09:13:48.948Z,12.57
2018-12-13T09:21:41.633Z,12.97
2018-12-13T09:30:37.880Z,13.23
2018-12-13T09:36:22.454Z,12.93
2018-12-13T09:39:09.623Z,11.83
2018-12-13T09:41:58.666Z,13.37
2018-12-13T09:54:12.754Z,24.77
2018-12-13T10:00:11.441Z,11.97
2018-12-13T10:05:56.461Z,12.07
2018-12-13T10:08:38.939Z,11.97
2018-12-13T10:11:17.581Z,12.07
2018-12-13T10:13:56.282Z,11.73
2018-12-13T10:16:37.730Z,12.20
2018-12-13T10:19:19.644Z,11.80
2018-12-13T10:21:55.244Z,10.57
2018-12-13T10:24:32.827Z,11.67
2018-12-13T10:30:18.760Z,10.13
2018-12-13T10:33:02.014Z,10.33
2018-12-13T10:35:44.251Z,9.47
2018-12-13T10:38:21.674Z,9.10
2018-12-13T10:50:34.949Z,10.37
2018-12-13T10:53:17.085Z,8.63
2018-12-13T10:55:53.638Z,9.77
2018-12-13T10:58:32.201Z,8.60
2018-12-13T11:04:19.356Z,8.83
2018-12-13T11:06:59.116Z,8.60
2018-12-13T11:12:41.137Z,9.13
2018-12-13T11:15:18.710Z,9.10
2018-12-13T11:17:56.256Z,9.07
2018-12-13T11:20:34.450Z,8.50
2018-12-13T11:23:12.647Z,7.83
2018-12-13T11:28:28.120Z,7.50
2018-12-13T11:31:03.512Z,7.60
2018-12-13T11:36:46.805Z,7.83
2018-12-13T11:39:28.512Z,7.00
2018-12-13T11:42:09.408Z,7.23
2018-12-13T11:44:46.146Z,7.00
2018-12-13T11:47:23.856Z,7.47
2018-12-13T11:52:58.908Z,6.87
2018-12-13T11:55:37.557Z,7.77
2018-12-13T11:58:15.196Z,7.33
2018-12-13T12:04:01.991Z,7.97
2018-12-13T12:09:48.822Z,7.13
2018-12-13T12:12:28.131Z,8.13
2018-12-13T12:15:05.534Z,8.10
2018-12-13T12:21:07.622Z,7.53
2018-12-13T12:23:55.040Z,7.87
2018-12-13T12:26:30.318Z,8.00
2018-12-13T12:29:05.437Z,8.33
2018-12-13T12:31:42.832Z,8.33
2018-12-13T12:37:19.891Z,8.43
2018-12-13T12:49:20.098Z,8.07
2018-12-13T12:51:58.060Z,7.87
2018-12-13T12:54:35.301Z,7.90
2018-12-13T12:57:19.184Z,8.07
2018-12-13T12:59:56.260Z,8.80
2018-12-13T13:05:42.099Z,8.73
2018-12-13T13:08:18.872Z,8.13
2018-12-13T13:11:06.727Z,8.43
2018-12-13T13:20:00.470Z,7.87
2018-12-13T13:26:01.362Z,9.27
2018-12-13T13:28:43.857Z,8.50
2018-12-13T13:51:50.974Z,9.10
2018-12-13T13:54:35.887Z,10.10
2018-12-13T13:57:11.302Z,9.93
2018-12-13T13:59:47.954Z,8.73
2018-12-13T14:02:24.176Z,9.30
2018-12-13T14:05:03.057Z,9.40
2018-12-13T14:07:37.510Z,8.67
2018-12-13T14:10:11.091Z,8.50
2018-12-13T14:12:48.134Z,8.13
2018-12-13T14:15:22.072Z,8.70
2018-12-13T14:17:58.233Z,8.57
2018-12-13T14:20:35.041Z,9.30
2018-12-13T14:23:08.751Z,8.97
2018-12-13T14:25:42.113Z,9.23
2018-12-13T14:28:21.420Z,8.90
2018-12-13T14:30:57.008Z,9.07
2018-12-13T14:33:32.970Z,9.40
2018-12-13T14:36:12.026Z,8.57
2018-12-13T14:38:46.262Z,9.27
2018-12-13T14:41:23.711Z,10.07
2018-12-13T14:44:23.191Z,9.40
2018-12-13T14:46:59.556Z,10.03
2018-12-13T14:49:35.135Z,9.60
2018-12-13T15:02:52.615Z,10.50
2018-12-13T15:05:27.152Z,10.53
2018-12-13T15:08:03.258Z,8.57
2018-12-13T15:10:38.084Z,9.93
2018-12-13T15:13:21.262Z,9.40
2018-12-13T15:15:56.477Z,11.00
2018-12-13T15:18:33.406Z,10.60
2018-12-13T15:21:12.251Z,9.73
2018-12-13T15:23:51.365Z,10.40
2018-12-13T15:26:26.594Z,11.07
2018-12-13T15:29:04.350Z,11.40
2018-12-13T15:31:43.503Z,10.97
2018-12-13T15:34:16.300Z,10.30
2018-12-13T15:36:49.590Z,10.37
2018-12-13T15:39:24.887Z,10.17
2018-12-13T15:41:57.843Z,11.40
2018-12-13T15:44:32.036Z,11.53
2018-12-13T15:47:07.368Z,33.93
2018-12-13T15:49:40.391Z,17.23
2018-12-13T15:52:15.709Z,11.83
2018-12-13T15:54:54.957Z,11.60
2018-12-13T15:57:30.092Z,10.70
2018-12-13T16:00:17.661Z,11.57
2018-12-13T16:02:52.887Z,11.43
2018-12-13T16:05:34.089Z,11.43
2018-12-13T16:08:06.876Z,11.03
2018-12-13T16:10:39.660Z,12.73
2018-12-13T16:13:17.198Z,11.37
2018-12-13T16:15:53.393Z,10.80
2018-12-13T16:21:38.384Z,11.27
2018-12-13T16:24:12.617Z,11.77
2018-12-13T16:26:45.687Z,11.93
2018-12-13T16:29:21.036Z,11.93
2018-12-13T16:31:56.462Z,11.43
2018-12-13T16:34:31.526Z,12.40
2018-12-13T16:37:07.086Z,13.07
2018-12-13T16:39:42.693Z,12.70
2018-12-13T16:42:17.890Z,13.13
2018-12-13T16:44:57.718Z,12.60
2018-12-13T16:47:43.810Z,12.43
2018-12-13T16:50:20.207Z,12.97
2018-12-13T16:52:56.906Z,12.57
2018-12-13T16:55:36.264Z,12.73
2018-12-13T16:58:10.260Z,12.03
2018-12-13T17:00:43.958Z,12.67
2018-12-13T17:03:27.942Z,12.90
2018-12-13T17:06:04.249Z,13.97
2018-12-13T17:08:38.934Z,13.30
2018-12-13T17:11:20.965Z,12.90
2018-12-13T17:13:58.149Z,12.27
2018-12-13T17:16:44.922Z,13.23
2018-12-13T17:19:19.807Z,12.27
2018-12-13T17:21:52.639Z,12.50
2018-12-13T17:24:25.245Z,13.20
2018-12-13T17:26:58.361Z,13.87
2018-12-13T17:29:33.867Z,13.80
2018-12-13T17:32:06.638Z,13.30
2018-12-13T17:34:44.321Z,12.37
2018-12-13T17:37:18.269Z,12.70
2018-12-13T17:39:58.438Z,13.90
2018-12-13T17:42:33.428Z,12.67
2018-12-13T17:45:11.109Z,13.73
2018-12-13T17:47:44.380Z,12.90
2018-12-13T17:50:19.638Z,13.50
2018-12-13T17:52:58.749Z,12.40
2018-12-13T17:55:33.950Z,13.07
2018-12-13T17:58:07.541Z,13.07
2018-12-13T18:00:43.530Z,12.60
2018-12-13T18:03:20.107Z,13.33
2018-12-13T18:05:53.442Z,12.60
2018-12-13T18:08:28.889Z,13.80
2018-12-13T18:11:03.980Z,13.93
2018-12-13T18:13:45.197Z,17.33
2018-12-13T18:16:21.599Z,14.53
2018-12-13T18:18:54.865Z,15.10
2018-12-13T18:21:28.484Z,13.77
2018-12-13T18:24:01.752Z,13.93
2018-12-13T18:26:35.228Z,13.73
2018-12-13T18:29:08.015Z,14.80
2018-12-13T18:31:40.401Z,13.43
2018-12-13T18:34:14.702Z,13.70
2018-12-13T18:36:47.822Z,13.50
2018-12-13T18:39:21.035Z,12.63
2018-12-13T18:41:56.157Z,12.27
2018-12-13T18:44:31.518Z,12.70
2018-12-13T18:47:06.351Z,13.17
2018-12-13T18:49:39.177Z,12.00
2018-12-13T18:52:11.972Z,12.43
2018-12-13T18:54:46.104Z,12.07
2018-12-13T18:57:22.767Z,12.53
2018-12-13T18:59:59.876Z,12.57
2018-12-13T19:02:34.999Z,12.73
2018-12-13T19:05:08.855Z,11.10
2018-12-13T19:07:41.840Z,12.87
2018-12-13T19:10:16.088Z,13.13
2018-12-13T19:13:02.641Z,11.97
2018-12-13T19:15:36.020Z,11.77
2018-12-13T19:18:28.491Z,10.83
2018-12-13T19:21:04.552Z,11.10
2018-12-13T19:23:42.799Z,10.83
2018-12-13T19:26:16.985Z,11.20
2018-12-13T19:28:54.085Z,11.03
2018-12-13T19:31:26.724Z,11.80
2018-12-13T19:34:00.940Z,11.70
2018-12-13T19:39:51.902Z,10.13
2018-12-13T19:42:34.505Z,10.90
2018-12-13T19:45:20.033Z,11.63
2018-12-13T19:47:54.250Z,10.97
2018-12-13T19:50:41.679Z,10.43
2018-12-13T19:53:20.495Z,11.27
2018-12-13T19:56:03.120Z,11.37
2018-12-13T19:58:43.853Z,11.00
2018-12-13T20:01:19.721Z,11.07
2018-12-13T20:03:55.842Z,10.50
2018-12-13T20:06:32.290Z,10.80
2018-12-13T20:09:09.472Z,9.50
2018-12-13T20:11:49.199Z,10.80
2018-12-13T20:14:24.513Z,11.33
2018-12-13T20:37:27.266Z,11.27
2018-12-13T20:40:03.145Z,9.67
2018-12-13T20:42:39.286Z,11.17
2018-12-13T20:45:13.728Z,11.00
2018-12-13T20:47:51.224Z,11.20
2018-12-13T20:50:25.600Z,11.50
2018-12-13T20:53:00.253Z,11.70
2018-12-13T20:55:37.740Z,13.87
2018-12-13T20:58:13.797Z,12.67
2018-12-13T21:00:49.444Z,12.93
2018-12-13T21:03:26.661Z,12.43
2018-12-13T21:06:04.759Z,12.27
2018-12-13T21:08:39.961Z,12.30
2018-12-13T21:11:18.224Z,12.83
2018-12-13T21:13:54.033Z,13.47
2018-12-13T21:16:31.252Z,13.37
2018-12-13T21:19:07.513Z,13.03
2018-12-13T21:21:47.212Z,13.33
2018-12-13T21:24:24.662Z,13.10
2018-12-13T21:27:04.478Z,12.33
2018-12-13T21:29:44.026Z,12.43
2018-12-13T21:32:21.845Z,11.87
2018-12-13T21:34:58.135Z,13.23
2018-12-13T21:37:33.400Z,13.40
2018-12-13T21:45:13.638Z,14.30
2018-12-13T21:47:49.535Z,16.80
2018-12-13T21:50:23.216Z,16.23
2018-12-13T21:52:57.283Z,16.90
2018-12-13T21:55:32.319Z,16.37
2018-12-13T21:58:09.713Z,14.60
2018-12-13T22:00:45.407Z,16.57
2018-12-13T22:03:23.907Z,16.50
2018-12-13T22:06:02.550Z,15.67
2018-12-13T22:08:36.503Z,15.60
2018-12-13T22:11:19.987Z,16.00
2018-12-13T22:13:56.541Z,16.07
2018-12-13T22:16:31.557Z,16.37
2018-12-13T22:19:08.531Z,16.47
2018-12-13T22:21:44.681Z,16.37
2018-12-13T22:24:22.593Z,16.13
2018-12-13T22:26:57.370Z,15.60
2018-12-13T22:29:34.503Z,16.20
2018-12-13T22:32:09.911Z,15.53
2018-12-13T22:34:47.491Z,16.13
2018-12-13T22:37:25.074Z,15.87
2018-12-13T22:40:04.131Z,15.10
2018-12-13T22:42:39.266Z,14.97
2018-12-13T22:45:18.181Z,17.20
2018-12-13T22:47:54.098Z,15.73
2018-12-13T22:55:41.703Z,17.50
2018-12-13T22:58:18.769Z,17.17
2018-12-13T23:00:56.845Z,15.40
2018-12-13T23:03:35.362Z,16.37
2018-12-13T23:06:11.754Z,16.83
2018-12-13T23:08:54.477Z,15.60
2018-12-13T23:11:33.732Z,16.10
2018-12-13T23:14:12.787Z,16.70
2018-12-13T23:16:50.517Z,16.43
2018-12-13T23:19:28.338Z,17.13
2018-12-13T23:22:06.445Z,16.73
2018-12-13T23:24:44.434Z,17.23
2018-12-13T23:27:22.139Z,15.77
2018-12-13T23:29:57.979Z,16.83
2018-12-13T23:32:35.617Z,17.93
2018-12-13T23:35:13.772Z,17.73
2018-12-13T23:37:57.120Z,17.33
2018-12-13T23:40:36.640Z,17.47
2018-12-13T23:43:13.574Z,18.80
2018-12-13T23:45:49.371Z,16.90
2018-12-13T23:48:28.228Z,17.93
2018-12-13T23:51:04.007Z,18.30
2018-12-13T23:53:40.164Z,17.50
2018-12-13T23:56:15.818Z,17.33
2018-12-13T23:58:52.606Z,18.30
